sensor_id;sensor_type;location;lat;lon;timestamp;P1;durP1;ratioP1;P2;durP2;ratioP2
7263;SDS011;3673;52.480;13.348;2023-06-14T00:00:45;4.15;;;2.20;;
7263;SDS011;3673;52.480;13.348;2023-06-14T00:03:13;3.95;;;2.10;;
7263;SDS011;3673;52.480;13.348;2023-06-14T00:05:42;3.40;;;2.42;;
7263;SDS011;3673;52.480;13.348;2023-06-14T00:08:13;2.85;;;2.45;;
7263;SDS011;3673;52.480;13.348;2023-06-14T00:10:40;5.00;;;2.60;;
7263;SDS011;3673;52.480;13.348;2023-06-14T00:13:07;2.55;;;2.30;;
7263;SDS011;3673;52.480;13.348;2023-06-14T00:15:34;4.82;;;2.53;;
7263;SDS011;3673;52.480;13.348;2023-06-14T00:18:01;3.67;;;2.80;;
7263;SDS011;3673;52.480;13.348;2023-06-14T00:20:30;7.45;;;2.67;;
7263;SDS011;3673;52.480;13.348;2023-06-14T00:22:59;4.28;;;2.67;;
7263;SDS011;3673;52.480;13.348;2023-06-14T00:25:27;3.35;;;2.85;;
7263;SDS011;3673;52.480;13.348;2023-06-14T00:27:54;6.70;;;2.78;;
7263;SDS011;3673;52.480;13.348;2023-06-14T00:30:22;2.75;;;2.42;;
7263;SDS011;3673;52.480;13.348;2023-06-14T00:32:49;3.10;;;2.70;;
7263;SDS011;3673;52.480;13.348;2023-06-14T00:35:17;5.38;;;2.70;;
7263;SDS011;3673;52.480;13.348;2023-06-14T00:37:44;3.63;;;2.85;;
7263;SDS011;3673;52.480;13.348;2023-06-14T00:40:11;5.18;;;2.65;;
7263;SDS011;3673;52.480;13.348;2023-06-14T00:42:39;3.58;;;3.03;;
7263;SDS011;3673;52.480;13.348;2023-06-14T00:45:06;3.92;;;2.83;;
7263;SDS011;3673;52.480;13.348;2023-06-14T00:47:34;5.43;;;2.88;;
7263;SDS011;3673;52.480;13.348;2023-06-14T00:50:03;3.28;;;2.30;;
7263;SDS011;3673;52.480;13.348;2023-06-14T00:52:33;5.05;;;3.30;;
7263;SDS011;3673;52.480;13.348;2023-06-14T00:55:01;3.03;;;2.40;;
7263;SDS011;3673;52.480;13.348;2023-06-14T00:57:28;3.78;;;2.75;;
7263;SDS011;3673;52.480;13.348;2023-06-14T00:59:57;5.85;;;3.05;;
7263;SDS011;3673;52.480;13.348;2023-06-14T01:02:23;5.32;;;2.80;;
7263;SDS011;3673;52.480;13.348;2023-06-14T01:04:51;9.85;;;3.63;;
7263;SDS011;3673;52.480;13.348;2023-06-14T01:07:21;8.52;;;3.20;;
7263;SDS011;3673;52.480;13.348;2023-06-14T01:10:01;4.00;;;3.22;;
7263;SDS011;3673;52.480;13.348;2023-06-14T01:12:44;6.85;;;2.95;;
7263;SDS011;3673;52.480;13.348;2023-06-14T01:15:23;10.15;;;4.18;;
7263;SDS011;3673;52.480;13.348;2023-06-14T01:17:50;4.28;;;3.28;;
7263;SDS011;3673;52.480;13.348;2023-06-14T01:20:19;6.07;;;3.65;;
7263;SDS011;3673;52.480;13.348;2023-06-14T01:22:51;5.18;;;3.53;;
7263;SDS011;3673;52.480;13.348;2023-06-14T01:25:19;5.80;;;4.00;;
7263;SDS011;3673;52.480;13.348;2023-06-14T01:27:48;3.53;;;3.22;;
7263;SDS011;3673;52.480;13.348;2023-06-14T01:30:17;4.50;;;3.50;;
7263;SDS011;3673;52.480;13.348;2023-06-14T01:32:46;3.65;;;3.35;;
7263;SDS011;3673;52.480;13.348;2023-06-14T01:35:17;7.78;;;4.40;;
7263;SDS011;3673;52.480;13.348;2023-06-14T01:37:44;5.10;;;3.47;;
7263;SDS011;3673;52.480;13.348;2023-06-14T01:40:15;4.60;;;3.53;;
7263;SDS011;3673;52.480;13.348;2023-06-14T01:42:44;5.75;;;3.63;;
7263;SDS011;3673;52.480;13.348;2023-06-14T01:45:14;3.97;;;3.50;;
7263;SDS011;3673;52.480;13.348;2023-06-14T01:47:43;8.05;;;3.95;;
7263;SDS011;3673;52.480;13.348;2023-06-14T01:50:11;4.03;;;3.50;;
7263;SDS011;3673;52.480;13.348;2023-06-14T01:52:37;4.43;;;3.90;;
7263;SDS011;3673;52.480;13.348;2023-06-14T01:55:05;5.78;;;4.55;;
7263;SDS011;3673;52.480;13.348;2023-06-14T01:57:34;4.45;;;3.75;;
7263;SDS011;3673;52.480;13.348;2023-06-14T02:00:01;8.88;;;3.78;;
7263;SDS011;3673;52.480;13.348;2023-06-14T02:02:29;7.47;;;4.80;;
7263;SDS011;3673;52.480;13.348;2023-06-14T02:04:56;3.90;;;3.60;;
7263;SDS011;3673;52.480;13.348;2023-06-14T02:07:23;6.28;;;4.20;;
7263;SDS011;3673;52.480;13.348;2023-06-14T02:09:50;6.10;;;4.63;;
7263;SDS011;3673;52.480;13.348;2023-06-14T02:12:16;7.78;;;4.32;;
7263;SDS011;3673;52.480;13.348;2023-06-14T02:14:44;4.93;;;4.00;;
7263;SDS011;3673;52.480;13.348;2023-06-14T02:17:11;5.82;;;4.10;;
7263;SDS011;3673;52.480;13.348;2023-06-14T02:19:38;5.18;;;4.05;;
7263;SDS011;3673;52.480;13.348;2023-06-14T02:22:05;5.53;;;4.10;;
7263;SDS011;3673;52.480;13.348;2023-06-14T02:24:32;8.02;;;4.35;;
7263;SDS011;3673;52.480;13.348;2023-06-14T02:26:59;5.55;;;3.83;;
7263;SDS011;3673;52.480;13.348;2023-06-14T02:29:26;5.75;;;4.00;;
7263;SDS011;3673;52.480;13.348;2023-06-14T02:31:54;7.45;;;4.18;;
7263;SDS011;3673;52.480;13.348;2023-06-14T02:34:20;7.68;;;5.00;;
7263;SDS011;3673;52.480;13.348;2023-06-14T02:36:47;5.97;;;3.95;;
7263;SDS011;3673;52.480;13.348;2023-06-14T02:39:14;5.05;;;4.38;;
7263;SDS011;3673;52.480;13.348;2023-06-14T02:41:42;5.35;;;4.40;;
7263;SDS011;3673;52.480;13.348;2023-06-14T02:44:09;8.85;;;5.47;;
7263;SDS011;3673;52.480;13.348;2023-06-14T02:46:37;4.93;;;4.25;;
7263;SDS011;3673;52.480;13.348;2023-06-14T02:49:05;5.13;;;4.28;;
7263;SDS011;3673;52.480;13.348;2023-06-14T02:51:32;7.57;;;5.13;;
7263;SDS011;3673;52.480;13.348;2023-06-14T02:53:59;5.70;;;4.50;;
7263;SDS011;3673;52.480;13.348;2023-06-14T02:56:26;8.13;;;4.70;;
7263;SDS011;3673;52.480;13.348;2023-06-14T02:58:53;6.75;;;4.60;;
7263;SDS011;3673;52.480;13.348;2023-06-14T03:01:20;7.38;;;5.65;;
7263;SDS011;3673;52.480;13.348;2023-06-14T03:03:48;4.95;;;4.45;;
7263;SDS011;3673;52.480;13.348;2023-06-14T03:06:17;6.78;;;4.22;;
7263;SDS011;3673;52.480;13.348;2023-06-14T03:08:44;9.25;;;4.88;;
7263;SDS011;3673;52.480;13.348;2023-06-14T03:11:11;9.60;;;5.00;;
7263;SDS011;3673;52.480;13.348;2023-06-14T03:13:37;7.03;;;4.47;;
7263;SDS011;3673;52.480;13.348;2023-06-14T03:16:06;7.30;;;4.90;;
7263;SDS011;3673;52.480;13.348;2023-06-14T03:18:33;6.72;;;5.30;;
7263;SDS011;3673;52.480;13.348;2023-06-14T03:21:01;5.80;;;4.50;;
7263;SDS011;3673;52.480;13.348;2023-06-14T03:23:29;8.82;;;4.68;;
7263;SDS011;3673;52.480;13.348;2023-06-14T03:25:56;8.82;;;4.60;;
7263;SDS011;3673;52.480;13.348;2023-06-14T03:28:23;5.82;;;4.97;;
7263;SDS011;3673;52.480;13.348;2023-06-14T03:30:50;6.53;;;5.07;;
7263;SDS011;3673;52.480;13.348;2023-06-14T03:33:17;5.72;;;4.35;;
7263;SDS011;3673;52.480;13.348;2023-06-14T03:35:44;9.00;;;4.75;;
7263;SDS011;3673;52.480;13.348;2023-06-14T03:38:11;7.68;;;5.05;;
7263;SDS011;3673;52.480;13.348;2023-06-14T03:40:39;5.45;;;4.95;;
7263;SDS011;3673;52.480;13.348;2023-06-14T03:43:06;5.85;;;4.75;;
7263;SDS011;3673;52.480;13.348;2023-06-14T03:45:32;9.18;;;4.95;;
7263;SDS011;3673;52.480;13.348;2023-06-14T03:47:59;6.50;;;5.60;;
7263;SDS011;3673;52.480;13.348;2023-06-14T03:50:26;6.43;;;5.03;;
7263;SDS011;3673;52.480;13.348;2023-06-14T03:52:53;5.57;;;5.07;;
7263;SDS011;3673;52.480;13.348;2023-06-14T03:55:20;7.55;;;5.05;;
7263;SDS011;3673;52.480;13.348;2023-06-14T03:57:48;6.07;;;4.95;;
7263;SDS011;3673;52.480;13.348;2023-06-14T04:00:15;7.40;;;5.47;;
7263;SDS011;3673;52.480;13.348;2023-06-14T04:02:43;5.25;;;4.63;;
7263;SDS011;3673;52.480;13.348;2023-06-14T04:05:10;8.98;;;5.40;;
7263;SDS011;3673;52.480;13.348;2023-06-14T04:07:37;7.60;;;6.20;;
7263;SDS011;3673;52.480;13.348;2023-06-14T04:10:05;9.00;;;5.65;;
7263;SDS011;3673;52.480;13.348;2023-06-14T04:12:33;9.00;;;5.95;;
7263;SDS011;3673;52.480;13.348;2023-06-14T04:15:02;6.63;;;5.60;;
7263;SDS011;3673;52.480;13.348;2023-06-14T04:17:31;7.97;;;5.25;;
7263;SDS011;3673;52.480;13.348;2023-06-14T04:19:59;6.18;;;5.32;;
7263;SDS011;3673;52.480;13.348;2023-06-14T04:22:27;7.55;;;5.50;;
7263;SDS011;3673;52.480;13.348;2023-06-14T04:24:57;7.72;;;5.50;;
7263;SDS011;3673;52.480;13.348;2023-06-14T04:27:25;6.72;;;5.65;;
7263;SDS011;3673;52.480;13.348;2023-06-14T04:29:55;7.40;;;5.43;;
7263;SDS011;3673;52.480;13.348;2023-06-14T04:32:26;8.30;;;5.40;;
7263;SDS011;3673;52.480;13.348;2023-06-14T04:34:54;6.90;;;5.75;;
7263;SDS011;3673;52.480;13.348;2023-06-14T04:37:22;6.60;;;5.88;;
7263;SDS011;3673;52.480;13.348;2023-06-14T04:39:49;7.72;;;6.43;;
7263;SDS011;3673;52.480;13.348;2023-06-14T04:42:16;7.97;;;5.57;;
7263;SDS011;3673;52.480;13.348;2023-06-14T04:44:45;8.02;;;6.25;;
7263;SDS011;3673;52.480;13.348;2023-06-14T04:47:13;6.75;;;5.40;;
7263;SDS011;3673;52.480;13.348;2023-06-14T04:49:43;7.45;;;5.82;;
7263;SDS011;3673;52.480;13.348;2023-06-14T04:52:09;9.73;;;6.32;;
7263;SDS011;3673;52.480;13.348;2023-06-14T04:54:38;8.32;;;5.80;;
7263;SDS011;3673;52.480;13.348;2023-06-14T04:57:07;7.10;;;6.20;;
7263;SDS011;3673;52.480;13.348;2023-06-14T04:59:34;7.15;;;5.93;;
7263;SDS011;3673;52.480;13.348;2023-06-14T05:02:01;11.82;;;6.13;;
7263;SDS011;3673;52.480;13.348;2023-06-14T05:04:28;8.52;;;6.45;;
7263;SDS011;3673;52.480;13.348;2023-06-14T05:06:56;9.50;;;5.75;;
7263;SDS011;3673;52.480;13.348;2023-06-14T05:09:23;6.78;;;6.05;;
7263;SDS011;3673;52.480;13.348;2023-06-14T05:11:50;9.13;;;5.32;;
7263;SDS011;3673;52.480;13.348;2023-06-14T05:14:17;8.43;;;5.88;;
7263;SDS011;3673;52.480;13.348;2023-06-14T05:16:44;7.93;;;5.53;;
7263;SDS011;3673;52.480;13.348;2023-06-14T05:19:13;6.43;;;5.47;;
7263;SDS011;3673;52.480;13.348;2023-06-14T05:21:42;10.73;;;5.70;;
7263;SDS011;3673;52.480;13.348;2023-06-14T05:24:11;7.78;;;5.88;;
7263;SDS011;3673;52.480;13.348;2023-06-14T05:26:37;8.27;;;6.00;;
7263;SDS011;3673;52.480;13.348;2023-06-14T05:29:04;7.50;;;5.65;;
7263;SDS011;3673;52.480;13.348;2023-06-14T05:31:31;11.35;;;5.40;;
7263;SDS011;3673;52.480;13.348;2023-06-14T05:33:58;5.88;;;4.88;;
7263;SDS011;3673;52.480;13.348;2023-06-14T05:36:25;7.30;;;4.97;;
7263;SDS011;3673;52.480;13.348;2023-06-14T05:38:52;6.95;;;5.88;;
7263;SDS011;3673;52.480;13.348;2023-06-14T05:41:23;8.80;;;5.78;;
7263;SDS011;3673;52.480;13.348;2023-06-14T05:43:51;11.07;;;5.35;;
7263;SDS011;3673;52.480;13.348;2023-06-14T05:46:18;8.55;;;5.72;;
7263;SDS011;3673;52.480;13.348;2023-06-14T05:48:47;6.85;;;5.82;;
7263;SDS011;3673;52.480;13.348;2023-06-14T05:51:14;8.70;;;5.35;;
7263;SDS011;3673;52.480;13.348;2023-06-14T05:53:43;12.40;;;5.70;;
7263;SDS011;3673;52.480;13.348;2023-06-14T05:56:10;6.57;;;5.70;;
7263;SDS011;3673;52.480;13.348;2023-06-14T05:58:38;10.55;;;5.38;;
7263;SDS011;3673;52.480;13.348;2023-06-14T06:01:05;8.52;;;5.53;;
7263;SDS011;3673;52.480;13.348;2023-06-14T06:03:32;7.07;;;5.93;;
7263;SDS011;3673;52.480;13.348;2023-06-14T06:05:59;7.25;;;5.72;;
7263;SDS011;3673;52.480;13.348;2023-06-14T06:08:27;7.75;;;6.18;;
7263;SDS011;3673;52.480;13.348;2023-06-14T06:10:55;6.95;;;6.25;;
7263;SDS011;3673;52.480;13.348;2023-06-14T06:13:22;14.00;;;6.28;;
7263;SDS011;3673;52.480;13.348;2023-06-14T06:15:50;8.27;;;6.00;;
7263;SDS011;3673;52.480;13.348;2023-06-14T06:18:17;7.45;;;5.30;;
7263;SDS011;3673;52.480;13.348;2023-06-14T06:20:44;9.30;;;6.18;;
7263;SDS011;3673;52.480;13.348;2023-06-14T06:23:12;7.80;;;6.50;;
7263;SDS011;3673;52.480;13.348;2023-06-14T06:25:39;7.00;;;5.82;;
7263;SDS011;3673;52.480;13.348;2023-06-14T06:28:06;7.93;;;6.72;;
7263;SDS011;3673;52.480;13.348;2023-06-14T06:30:33;7.97;;;6.40;;
7263;SDS011;3673;52.480;13.348;2023-06-14T06:33:02;12.77;;;6.80;;
7263;SDS011;3673;52.480;13.348;2023-06-14T06:35:29;7.88;;;6.15;;
7263;SDS011;3673;52.480;13.348;2023-06-14T06:37:58;6.63;;;5.90;;
7263;SDS011;3673;52.480;13.348;2023-06-14T06:40:25;6.88;;;5.60;;
7263;SDS011;3673;52.480;13.348;2023-06-14T06:42:52;8.85;;;6.28;;
7263;SDS011;3673;52.480;13.348;2023-06-14T06:45:19;9.68;;;6.10;;
7263;SDS011;3673;52.480;13.348;2023-06-14T06:47:48;6.95;;;5.90;;
7263;SDS011;3673;52.480;13.348;2023-06-14T06:50:17;7.40;;;5.70;;
7263;SDS011;3673;52.480;13.348;2023-06-14T06:52:44;7.40;;;5.55;;
7263;SDS011;3673;52.480;13.348;2023-06-14T06:55:11;9.70;;;6.32;;
7263;SDS011;3673;52.480;13.348;2023-06-14T06:57:38;7.50;;;5.57;;
7263;SDS011;3673;52.480;13.348;2023-06-14T07:00:05;10.40;;;6.60;;
7263;SDS011;3673;52.480;13.348;2023-06-14T07:02:35;13.45;;;6.60;;
7263;SDS011;3673;52.480;13.348;2023-06-14T07:05:02;7.68;;;4.63;;
7263;SDS011;3673;52.480;13.348;2023-06-14T07:07:30;7.35;;;4.43;;
7263;SDS011;3673;52.480;13.348;2023-06-14T07:09:57;8.05;;;4.60;;
7263;SDS011;3673;52.480;13.348;2023-06-14T07:12:25;7.35;;;4.75;;
7263;SDS011;3673;52.480;13.348;2023-06-14T07:14:52;10.80;;;5.65;;
7263;SDS011;3673;52.480;13.348;2023-06-14T07:17:18;8.00;;;5.60;;
7263;SDS011;3673;52.480;13.348;2023-06-14T07:19:45;8.85;;;5.25;;
7263;SDS011;3673;52.480;13.348;2023-06-14T07:22:12;9.60;;;4.68;;
7263;SDS011;3673;52.480;13.348;2023-06-14T07:24:40;7.65;;;5.22;;
7263;SDS011;3673;52.480;13.348;2023-06-14T07:27:07;7.38;;;4.90;;
7263;SDS011;3673;52.480;13.348;2023-06-14T07:29:35;9.55;;;5.50;;
7263;SDS011;3673;52.480;13.348;2023-06-14T07:32:02;11.02;;;5.35;;
7263;SDS011;3673;52.480;13.348;2023-06-14T07:34:30;7.07;;;4.20;;
7263;SDS011;3673;52.480;13.348;2023-06-14T07:36:57;5.60;;;4.75;;
7263;SDS011;3673;52.480;13.348;2023-06-14T07:39:24;7.72;;;4.80;;
7263;SDS011;3673;52.480;13.348;2023-06-14T07:41:52;9.63;;;5.82;;
7263;SDS011;3673;52.480;13.348;2023-06-14T07:44:18;12.43;;;4.80;;
7263;SDS011;3673;52.480;13.348;2023-06-14T07:46:45;7.22;;;5.30;;
7263;SDS011;3673;52.480;13.348;2023-06-14T07:49:14;16.80;;;5.68;;
7263;SDS011;3673;52.480;13.348;2023-06-14T07:51:41;5.55;;;4.40;;
7263;SDS011;3673;52.480;13.348;2023-06-14T07:54:09;10.30;;;5.13;;
7263;SDS011;3673;52.480;13.348;2023-06-14T07:56:36;9.27;;;4.53;;
7263;SDS011;3673;52.480;13.348;2023-06-14T07:59:04;7.90;;;4.65;;
7263;SDS011;3673;52.480;13.348;2023-06-14T08:01:31;7.57;;;5.10;;
7263;SDS011;3673;52.480;13.348;2023-06-14T08:03:58;5.25;;;4.10;;
7263;SDS011;3673;52.480;13.348;2023-06-14T08:06:26;8.48;;;5.10;;
7263;SDS011;3673;52.480;13.348;2023-06-14T08:08:52;5.25;;;4.30;;
7263;SDS011;3673;52.480;13.348;2023-06-14T08:11:19;4.72;;;3.83;;
7263;SDS011;3673;52.480;13.348;2023-06-14T08:13:49;9.13;;;4.60;;
7263;SDS011;3673;52.480;13.348;2023-06-14T08:16:17;9.32;;;5.32;;
7263;SDS011;3673;52.480;13.348;2023-06-14T08:18:44;11.20;;;4.63;;
7263;SDS011;3673;52.480;13.348;2023-06-14T08:21:11;7.97;;;4.47;;
7263;SDS011;3673;52.480;13.348;2023-06-14T08:23:39;8.70;;;5.00;;
7263;SDS011;3673;52.480;13.348;2023-06-14T08:26:07;10.18;;;3.95;;
7263;SDS011;3673;52.480;13.348;2023-06-14T08:28:35;7.07;;;4.47;;
7263;SDS011;3673;52.480;13.348;2023-06-14T08:31:01;9.85;;;4.32;;
7263;SDS011;3673;52.480;13.348;2023-06-14T08:33:30;7.07;;;4.00;;
7263;SDS011;3673;52.480;13.348;2023-06-14T08:35:58;6.78;;;4.22;;
7263;SDS011;3673;52.480;13.348;2023-06-14T08:38:25;7.30;;;3.58;;
7263;SDS011;3673;52.480;13.348;2023-06-14T08:40:52;5.82;;;3.65;;
7263;SDS011;3673;52.480;13.348;2023-06-14T08:43:22;6.78;;;4.07;;
7263;SDS011;3673;52.480;13.348;2023-06-14T08:45:50;8.75;;;4.20;;
7263;SDS011;3673;52.480;13.348;2023-06-14T08:48:23;5.65;;;3.45;;
7263;SDS011;3673;52.480;13.348;2023-06-14T08:50:54;4.40;;;2.97;;
7263;SDS011;3673;52.480;13.348;2023-06-14T08:53:26;4.53;;;3.38;;
7263;SDS011;3673;52.480;13.348;2023-06-14T08:55:57;11.07;;;3.80;;
7263;SDS011;3673;52.480;13.348;2023-06-14T08:58:26;5.35;;;4.07;;
7263;SDS011;3673;52.480;13.348;2023-06-14T09:00:54;4.57;;;3.35;;
7263;SDS011;3673;52.480;13.348;2023-06-14T09:03:22;4.57;;;3.20;;
7263;SDS011;3673;52.480;13.348;2023-06-14T09:05:56;5.00;;;3.00;;
7263;SDS011;3673;52.480;13.348;2023-06-14T09:08:24;8.82;;;3.55;;
7263;SDS011;3673;52.480;13.348;2023-06-14T09:10:52;7.70;;;3.28;;
7263;SDS011;3673;52.480;13.348;2023-06-14T09:13:19;7.32;;;3.47;;
7263;SDS011;3673;52.480;13.348;2023-06-14T09:15:45;6.95;;;3.75;;
7263;SDS011;3673;52.480;13.348;2023-06-14T09:18:12;6.55;;;3.83;;
7263;SDS011;3673;52.480;13.348;2023-06-14T09:20:40;6.57;;;3.65;;
7263;SDS011;3673;52.480;13.348;2023-06-14T09:23:08;6.85;;;3.53;;
7263;SDS011;3673;52.480;13.348;2023-06-14T09:25:41;4.63;;;3.67;;
7263;SDS011;3673;52.480;13.348;2023-06-14T09:28:09;5.78;;;4.28;;
7263;SDS011;3673;52.480;13.348;2023-06-14T09:30:36;6.45;;;3.90;;
7263;SDS011;3673;52.480;13.348;2023-06-14T09:33:04;4.80;;;3.75;;
7263;SDS011;3673;52.480;13.348;2023-06-14T09:35:31;3.65;;;3.10;;
7263;SDS011;3673;52.480;13.348;2023-06-14T09:37:58;6.53;;;3.13;;
7263;SDS011;3673;52.480;13.348;2023-06-14T09:40:29;4.55;;;3.85;;
7263;SDS011;3673;52.480;13.348;2023-06-14T09:43:02;8.65;;;4.05;;
7263;SDS011;3673;52.480;13.348;2023-06-14T09:45:32;8.23;;;3.90;;
7263;SDS011;3673;52.480;13.348;2023-06-14T09:47:59;6.00;;;3.33;;
7263;SDS011;3673;52.480;13.348;2023-06-14T09:50:28;12.05;;;3.28;;
7263;SDS011;3673;52.480;13.348;2023-06-14T09:52:55;5.97;;;3.47;;
7263;SDS011;3673;52.480;13.348;2023-06-14T09:55:30;3.47;;;3.10;;
7263;SDS011;3673;52.480;13.348;2023-06-14T09:58:01;4.50;;;3.70;;
7263;SDS011;3673;52.480;13.348;2023-06-14T10:00:32;9.93;;;3.70;;
7263;SDS011;3673;52.480;13.348;2023-06-14T10:03:01;4.57;;;3.70;;
7263;SDS011;3673;52.480;13.348;2023-06-14T10:05:36;5.53;;;3.92;;
7263;SDS011;3673;52.480;13.348;2023-06-14T10:08:05;8.45;;;5.07;;
7263;SDS011;3673;52.480;13.348;2023-06-14T10:10:39;11.43;;;4.38;;
7263;SDS011;3673;52.480;13.348;2023-06-14T10:13:06;6.07;;;4.45;;
7263;SDS011;3673;52.480;13.348;2023-06-14T10:15:35;11.02;;;4.53;;
7263;SDS011;3673;52.480;13.348;2023-06-14T10:18:14;4.93;;;3.80;;
7263;SDS011;3673;52.480;13.348;2023-06-14T10:20:51;6.43;;;4.00;;
7263;SDS011;3673;52.480;13.348;2023-06-14T10:23:26;11.35;;;4.63;;
7263;SDS011;3673;52.480;13.348;2023-06-14T10:25:57;11.43;;;4.55;;
7263;SDS011;3673;52.480;13.348;2023-06-14T10:28:25;8.52;;;5.63;;
7263;SDS011;3673;52.480;13.348;2023-06-14T10:31:01;6.85;;;3.92;;
7263;SDS011;3673;52.480;13.348;2023-06-14T10:33:30;11.50;;;6.55;;
7263;SDS011;3673;52.480;13.348;2023-06-14T10:36:07;14.15;;;5.72;;
7263;SDS011;3673;52.480;13.348;2023-06-14T10:38:58;7.38;;;4.25;;
7263;SDS011;3673;52.480;13.348;2023-06-14T10:41:31;14.30;;;4.30;;
7263;SDS011;3673;52.480;13.348;2023-06-14T10:47:06;6.38;;;4.38;;
7263;SDS011;3673;52.480;13.348;2023-06-14T10:49:39;4.10;;;3.40;;
7263;SDS011;3673;52.480;13.348;2023-06-14T10:52:09;8.98;;;4.25;;
7263;SDS011;3673;52.480;13.348;2023-06-14T10:57:46;8.02;;;3.50;;
7263;SDS011;3673;52.480;13.348;2023-06-14T11:00:17;9.73;;;3.63;;
7263;SDS011;3673;52.480;13.348;2023-06-14T11:03:05;8.18;;;4.22;;
7263;SDS011;3673;52.480;13.348;2023-06-14T11:06:13;12.15;;;6.13;;
7263;SDS011;3673;52.480;13.348;2023-06-14T11:11:47;9.88;;;6.95;;
7263;SDS011;3673;52.480;13.348;2023-06-14T11:14:16;10.00;;;4.50;;
7263;SDS011;3673;52.480;13.348;2023-06-14T11:16:47;4.85;;;4.03;;
7263;SDS011;3673;52.480;13.348;2023-06-14T11:19:14;7.80;;;4.35;;
7263;SDS011;3673;52.480;13.348;2023-06-14T11:21:42;5.60;;;3.83;;
7263;SDS011;3673;52.480;13.348;2023-06-14T11:24:12;7.32;;;4.13;;
7263;SDS011;3673;52.480;13.348;2023-06-14T11:26:40;6.35;;;4.20;;
7263;SDS011;3673;52.480;13.348;2023-06-14T11:29:06;4.93;;;4.28;;
7263;SDS011;3673;52.480;13.348;2023-06-14T11:31:35;6.68;;;4.10;;
7263;SDS011;3673;52.480;13.348;2023-06-14T11:34:01;6.15;;;4.05;;
7263;SDS011;3673;52.480;13.348;2023-06-14T11:36:29;9.07;;;4.78;;
7263;SDS011;3673;52.480;13.348;2023-06-14T11:38:58;6.40;;;4.10;;
7263;SDS011;3673;52.480;13.348;2023-06-14T11:41:26;5.45;;;3.70;;
7263;SDS011;3673;52.480;13.348;2023-06-14T11:44:00;8.73;;;4.75;;
7263;SDS011;3673;52.480;13.348;2023-06-14T11:46:27;7.13;;;5.60;;
7263;SDS011;3673;52.480;13.348;2023-06-14T11:48:55;8.27;;;3.97;;
7263;SDS011;3673;52.480;13.348;2023-06-14T11:51:23;5.38;;;3.92;;
7263;SDS011;3673;52.480;13.348;2023-06-14T11:53:50;7.88;;;3.60;;
7263;SDS011;3673;52.480;13.348;2023-06-14T11:56:17;5.97;;;3.78;;
7263;SDS011;3673;52.480;13.348;2023-06-14T11:58:44;7.60;;;4.13;;
7263;SDS011;3673;52.480;13.348;2023-06-14T12:01:14;5.65;;;4.68;;
7263;SDS011;3673;52.480;13.348;2023-06-14T12:03:46;8.85;;;4.15;;
7263;SDS011;3673;52.480;13.348;2023-06-14T12:06:16;9.43;;;3.80;;
7263;SDS011;3673;52.480;13.348;2023-06-14T12:08:55;7.35;;;4.30;;
7263;SDS011;3673;52.480;13.348;2023-06-14T12:11:21;8.02;;;4.15;;
7263;SDS011;3673;52.480;13.348;2023-06-14T12:13:48;7.57;;;4.13;;
7263;SDS011;3673;52.480;13.348;2023-06-14T12:16:15;6.88;;;4.05;;
7263;SDS011;3673;52.480;13.348;2023-06-14T12:18:42;8.00;;;4.40;;
7263;SDS011;3673;52.480;13.348;2023-06-14T12:21:10;7.18;;;3.60;;
7263;SDS011;3673;52.480;13.348;2023-06-14T12:23:45;5.88;;;3.85;;
7263;SDS011;3673;52.480;13.348;2023-06-14T12:26:13;7.30;;;3.53;;
7263;SDS011;3673;52.480;13.348;2023-06-14T12:28:41;5.03;;;3.70;;
7263;SDS011;3673;52.480;13.348;2023-06-14T12:31:09;5.90;;;3.97;;
7263;SDS011;3673;52.480;13.348;2023-06-14T12:33:38;6.80;;;4.70;;
7263;SDS011;3673;52.480;13.348;2023-06-14T12:36:06;6.32;;;4.63;;
7263;SDS011;3673;52.480;13.348;2023-06-14T12:38:35;6.30;;;4.30;;
7263;SDS011;3673;52.480;13.348;2023-06-14T12:41:03;6.65;;;3.67;;
7263;SDS011;3673;52.480;13.348;2023-06-14T12:43:30;19.58;;;4.30;;
7263;SDS011;3673;52.480;13.348;2023-06-14T12:45:57;8.00;;;3.60;;
7263;SDS011;3673;52.480;13.348;2023-06-14T12:48:24;8.63;;;4.45;;
7263;SDS011;3673;52.480;13.348;2023-06-14T12:50:52;7.55;;;4.35;;
7263;SDS011;3673;52.480;13.348;2023-06-14T12:53:19;10.30;;;3.83;;
7263;SDS011;3673;52.480;13.348;2023-06-14T12:55:46;5.53;;;3.63;;
7263;SDS011;3673;52.480;13.348;2023-06-14T12:58:14;9.10;;;3.70;;
7263;SDS011;3673;52.480;13.348;2023-06-14T13:00:42;8.27;;;3.60;;
7263;SDS011;3673;52.480;13.348;2023-06-14T13:03:09;9.35;;;4.85;;
7263;SDS011;3673;52.480;13.348;2023-06-14T13:05:36;8.88;;;4.20;;
7263;SDS011;3673;52.480;13.348;2023-06-14T13:08:06;4.63;;;3.83;;
7263;SDS011;3673;52.480;13.348;2023-06-14T13:10:34;9.52;;;4.57;;
7263;SDS011;3673;52.480;13.348;2023-06-14T13:13:00;6.78;;;3.67;;
7263;SDS011;3673;52.480;13.348;2023-06-14T13:15:29;5.30;;;3.30;;
7263;SDS011;3673;52.480;13.348;2023-06-14T13:17:56;6.07;;;3.75;;
7263;SDS011;3673;52.480;13.348;2023-06-14T13:20:22;9.75;;;4.78;;
7263;SDS011;3673;52.480;13.348;2023-06-14T13:22:49;11.45;;;3.72;;
7263;SDS011;3673;52.480;13.348;2023-06-14T13:25:16;5.63;;;3.45;;
7263;SDS011;3673;52.480;13.348;2023-06-14T13:27:43;5.88;;;3.75;;
7263;SDS011;3673;52.480;13.348;2023-06-14T13:30:11;6.28;;;3.60;;
7263;SDS011;3673;52.480;13.348;2023-06-14T13:32:40;9.63;;;4.05;;
7263;SDS011;3673;52.480;13.348;2023-06-14T13:35:06;6.55;;;4.00;;
7263;SDS011;3673;52.480;13.348;2023-06-14T13:37:33;11.18;;;4.03;;
7263;SDS011;3673;52.480;13.348;2023-06-14T13:40:00;11.45;;;4.13;;
7263;SDS011;3673;52.480;13.348;2023-06-14T13:42:27;8.85;;;4.20;;
7263;SDS011;3673;52.480;13.348;2023-06-14T13:44:56;5.85;;;3.33;;
7263;SDS011;3673;52.480;13.348;2023-06-14T13:47:23;8.15;;;3.95;;
7263;SDS011;3673;52.480;13.348;2023-06-14T13:49:51;5.20;;;3.35;;
7263;SDS011;3673;52.480;13.348;2023-06-14T13:52:18;8.00;;;4.40;;
7263;SDS011;3673;52.480;13.348;2023-06-14T13:54:44;9.90;;;3.97;;
7263;SDS011;3673;52.480;13.348;2023-06-14T13:57:11;8.80;;;3.88;;
7263;SDS011;3673;52.480;13.348;2023-06-14T13:59:38;8.32;;;3.50;;
7263;SDS011;3673;52.480;13.348;2023-06-14T14:02:05;4.18;;;3.20;;
7263;SDS011;3673;52.480;13.348;2023-06-14T14:04:32;8.20;;;4.03;;
7263;SDS011;3673;52.480;13.348;2023-06-14T14:07:02;6.53;;;3.38;;
7263;SDS011;3673;52.480;13.348;2023-06-14T14:09:29;7.47;;;3.67;;
7263;SDS011;3673;52.480;13.348;2023-06-14T14:11:56;13.82;;;5.25;;
7263;SDS011;3673;52.480;13.348;2023-06-14T14:14:24;9.25;;;3.92;;
7263;SDS011;3673;52.480;13.348;2023-06-14T14:16:51;7.07;;;4.50;;
7263;SDS011;3673;52.480;13.348;2023-06-14T14:19:18;5.72;;;3.95;;
7263;SDS011;3673;52.480;13.348;2023-06-14T14:21:45;12.68;;;3.95;;
7263;SDS011;3673;52.480;13.348;2023-06-14T14:24:13;6.95;;;4.43;;
7263;SDS011;3673;52.480;13.348;2023-06-14T14:26:40;7.90;;;4.18;;
7263;SDS011;3673;52.480;13.348;2023-06-14T14:29:07;8.30;;;3.95;;
7263;SDS011;3673;52.480;13.348;2023-06-14T14:31:36;11.73;;;4.60;;
7263;SDS011;3673;52.480;13.348;2023-06-14T14:34:03;5.00;;;3.85;;
7263;SDS011;3673;52.480;13.348;2023-06-14T14:36:30;5.60;;;4.10;;
7263;SDS011;3673;52.480;13.348;2023-06-14T14:38:58;8.10;;;3.60;;
7263;SDS011;3673;52.480;13.348;2023-06-14T14:41:27;7.10;;;3.80;;
7263;SDS011;3673;52.480;13.348;2023-06-14T14:43:54;6.75;;;4.22;;
7263;SDS011;3673;52.480;13.348;2023-06-14T14:46:21;13.82;;;4.80;;
7263;SDS011;3673;52.480;13.348;2023-06-14T14:48:48;8.88;;;4.82;;
7263;SDS011;3673;52.480;13.348;2023-06-14T14:51:15;6.75;;;4.50;;
7263;SDS011;3673;52.480;13.348;2023-06-14T14:53:42;8.00;;;4.32;;
7263;SDS011;3673;52.480;13.348;2023-06-14T14:56:09;11.48;;;5.53;;
7263;SDS011;3673;52.480;13.348;2023-06-14T14:58:38;9.77;;;5.03;;
7263;SDS011;3673;52.480;13.348;2023-06-14T15:01:05;7.00;;;4.05;;
7263;SDS011;3673;52.480;13.348;2023-06-14T15:03:32;7.88;;;4.45;;
7263;SDS011;3673;52.480;13.348;2023-06-14T15:05:58;8.85;;;3.65;;
7263;SDS011;3673;52.480;13.348;2023-06-14T15:08:25;4.88;;;3.63;;
7263;SDS011;3673;52.480;13.348;2023-06-14T15:10:52;10.40;;;4.25;;
7263;SDS011;3673;52.480;13.348;2023-06-14T15:13:19;7.13;;;4.43;;
7263;SDS011;3673;52.480;13.348;2023-06-14T15:15:49;6.72;;;4.25;;